createdAt,value
2019-02-15T00:00:32.351Z,4.70
2019-02-15T00:03:01.663Z,4.70
2019-02-15T00:05:30.894Z,4.70
2019-02-15T00:08:00.135Z,4.70
2019-02-15T00:10:29.364Z,4.70
2019-02-15T00:12:58.603Z,4.70
2019-02-15T00:15:27.771Z,4.70
2019-02-15T00:17:58.587Z,4.70
2019-02-15T00:20:35.279Z,4.70
2019-02-15T00:23:04.455Z,4.70
2019-02-15T00:25:33.606Z,4.70
2019-02-15T00:28:02.774Z,4.70
2019-02-15T00:30:31.997Z,4.70
2019-02-15T00:33:01.226Z,4.70
2019-02-15T00:35:31.671Z,4.70
2019-02-15T00:38:00.891Z,4.70
2019-02-15T00:40:30.059Z,4.70
2019-02-15T00:42:59.226Z,4.70
2019-02-15T00:45:30.022Z,4.70
2019-02-15T00:48:06.813Z,4.70
2019-02-15T00:50:40.386Z,4.70
2019-02-15T00:53:20.163Z,4.70
2019-02-15T00:55:51.172Z,4.70
2019-02-15T00:58:38.230Z,4.70
2019-02-15T01:01:12.268Z,4.70
2019-02-15T01:03:46.155Z,4.70
2019-02-15T01:06:33.103Z,4.70
2019-02-15T01:09:03.912Z,4.70
2019-02-15T01:11:36.815Z,4.70
2019-02-15T01:14:05.984Z,4.70
2019-02-15T01:16:35.247Z,4.70
2019-02-15T01:19:04.459Z,4.70
2019-02-15T01:21:33.702Z,4.70
2019-02-15T01:24:02.940Z,4.70
2019-02-15T01:26:33.739Z,4.70
2019-02-15T01:29:04.547Z,4.70
2019-02-15T01:31:38.444Z,4.70
2019-02-15T01:34:09.324Z,4.70
2019-02-15T01:36:45.955Z,4.70
2019-02-15T01:39:33.163Z,4.70
2019-02-15T01:42:03.971Z,4.70
2019-02-15T01:44:37.722Z,4.70
2019-02-15T01:47:08.734Z,4.70
2019-02-15T01:49:37.960Z,4.70
2019-02-15T01:52:07.131Z,4.70
2019-02-15T01:54:36.364Z,4.70
2019-02-15T01:57:05.751Z,4.70
2019-02-15T01:59:35.054Z,4.70
2019-02-15T02:02:04.366Z,4.70
2019-02-15T02:04:33.617Z,4.70
2019-02-15T02:07:02.851Z,4.70
2019-02-15T02:09:32.022Z,4.70
2019-02-15T02:12:01.528Z,4.70
2019-02-15T02:14:30.767Z,4.70
2019-02-15T02:17:00.012Z,4.70
2019-02-15T02:19:29.250Z,4.70
2019-02-15T02:21:59.386Z,4.70
2019-02-15T02:24:28.684Z,4.60
2019-02-15T02:26:58.023Z,4.60
2019-02-15T02:29:27.246Z,4.70
2019-02-15T02:31:56.414Z,4.60
2019-02-15T02:34:25.644Z,4.70
2019-02-15T02:36:55.646Z,4.70
2019-02-15T02:39:24.815Z,4.60
2019-02-15T02:41:54.054Z,4.60
2019-02-15T02:44:23.222Z,4.60
2019-02-15T02:46:52.664Z,4.60
2019-02-15T02:49:22.275Z,4.60
2019-02-15T02:51:51.506Z,4.70
2019-02-15T02:54:20.871Z,4.70
2019-02-15T02:56:50.039Z,4.70
2019-02-15T02:59:20.278Z,4.70
2019-02-15T03:01:49.449Z,4.60
2019-02-15T03:04:18.948Z,4.60
2019-02-15T03:06:48.185Z,4.60
2019-02-15T03:09:17.426Z,4.60
2019-02-15T03:11:46.610Z,4.60
2019-02-15T03:14:15.848Z,4.60
2019-02-15T03:16:45.079Z,4.60
2019-02-15T03:19:14.320Z,4.60
2019-02-15T03:21:43.484Z,4.60
2019-02-15T03:24:12.727Z,4.60
2019-02-15T03:26:41.963Z,4.60
2019-02-15T03:29:11.115Z,4.60
2019-02-15T03:31:40.297Z,4.60
2019-02-15T03:34:09.592Z,4.60
2019-02-15T03:36:40.729Z,4.60
2019-02-15T03:39:29.723Z,4.60
2019-02-15T03:41:59.713Z,4.60
2019-02-15T03:44:28.913Z,4.60
2019-02-15T03:46:58.151Z,4.60
2019-02-15T03:49:27.321Z,4.60
2019-02-15T03:51:56.564Z,4.60
2019-02-15T03:54:25.872Z,4.60
2019-02-15T03:56:55.111Z,4.60
2019-02-15T03:59:24.360Z,4.60
2019-02-15T04:01:53.587Z,4.60
2019-02-15T04:04:22.826Z,4.60
2019-02-15T04:06:51.995Z,4.60
2019-02-15T04:09:21.171Z,4.60
2019-02-15T04:11:50.339Z,4.60
2019-02-15T04:14:19.491Z,4.60
2019-02-15T04:16:48.654Z,4.60
2019-02-15T04:19:19.101Z,4.60
2019-02-15T04:21:48.336Z,4.60
2019-02-15T04:24:17.566Z,4.60
2019-02-15T04:26:46.739Z,4.60
2019-02-15T04:29:15.982Z,4.60
2019-02-15T04:31:45.228Z,4.60
2019-02-15T04:34:14.474Z,4.60
2019-02-15T04:36:43.791Z,4.60
2019-02-15T04:39:13.271Z,4.60
2019-02-15T04:41:42.497Z,4.60
2019-02-15T04:44:11.744Z,4.60
2019-02-15T04:46:40.919Z,4.60
2019-02-15T04:49:10.144Z,4.60
2019-02-15T04:51:39.548Z,4.60
2019-02-15T04:54:08.787Z,4.60
2019-02-15T04:56:38.031Z,4.60
2019-02-15T04:59:07.188Z,4.60
2019-02-15T05:01:36.435Z,4.60
2019-02-15T05:04:05.678Z,4.60
2019-02-15T05:06:34.847Z,4.60
2019-02-15T05:09:04.902Z,4.60
2019-02-15T05:11:34.138Z,4.60
2019-02-15T05:14:03.311Z,4.60
2019-02-15T05:16:32.555Z,4.60
2019-02-15T05:19:02.377Z,4.60
2019-02-15T05:21:31.607Z,4.60
2019-02-15T05:24:00.775Z,4.60
2019-02-15T05:26:29.943Z,4.60
2019-02-15T05:28:59.107Z,4.60
2019-02-15T05:31:28.343Z,4.60
2019-02-15T05:33:57.888Z,4.60
2019-02-15T05:36:27.112Z,4.60
2019-02-15T05:38:56.359Z,4.60
2019-02-15T05:41:25.586Z,4.60
2019-02-15T05:43:54.831Z,4.60
2019-02-15T05:46:25.040Z,4.60
2019-02-15T05:48:54.292Z,4.60
2019-02-15T05:51:23.629Z,4.60
2019-02-15T05:53:52.855Z,4.60
2019-02-15T05:56:22.032Z,4.60
2019-02-15T05:58:51.254Z,4.60
2019-02-15T06:01:21.669Z,4.60
2019-02-15T06:03:50.839Z,4.60
2019-02-15T06:06:20.079Z,4.60
2019-02-15T06:08:49.232Z,4.60
2019-02-15T06:11:18.555Z,4.60
2019-02-15T06:13:48.055Z,4.60
2019-02-15T06:16:17.423Z,4.60
2019-02-15T06:18:46.593Z,4.60
2019-02-15T06:21:15.834Z,4.60
2019-02-15T06:23:45.073Z,4.60
2019-02-15T06:26:14.304Z,4.60
2019-02-15T06:28:43.547Z,4.60
2019-02-15T06:31:12.787Z,4.60
2019-02-15T06:33:41.942Z,4.60
2019-02-15T06:36:11.120Z,4.60
2019-02-15T06:38:40.360Z,4.60
2019-02-15T06:41:09.523Z,4.60
2019-02-15T06:43:38.691Z,4.60
2019-02-15T06:46:07.857Z,4.60
2019-02-15T06:48:37.101Z,4.60
2019-02-15T06:51:06.259Z,4.60
2019-02-15T06:53:35.531Z,4.60
2019-02-15T06:56:04.775Z,4.60
2019-02-15T06:58:35.266Z,4.60
2019-02-15T07:01:22.239Z,4.60
2019-02-15T07:03:53.109Z,4.60
2019-02-15T07:06:22.347Z,4.60
2019-02-15T07:08:51.499Z,4.60
2019-02-15T07:11:20.666Z,4.60
2019-02-15T07:13:49.894Z,4.60
2019-02-15T07:16:19.135Z,4.60
2019-02-15T07:18:48.291Z,4.60
2019-02-15T07:21:17.458Z,4.70
2019-02-15T07:23:47.007Z,4.60
2019-02-15T07:26:16.247Z,4.70
2019-02-15T07:28:45.415Z,4.70
2019-02-15T07:31:14.943Z,4.70
2019-02-15T07:33:44.117Z,4.60
2019-02-15T07:36:13.359Z,4.70
2019-02-15T07:38:42.639Z,4.70
2019-02-15T07:41:11.880Z,4.70
2019-02-15T07:43:41.046Z,4.70
2019-02-15T07:46:11.171Z,4.70
2019-02-15T07:48:40.415Z,4.70
2019-02-15T07:51:10.118Z,4.70
2019-02-15T07:53:39.615Z,4.70
2019-02-15T07:56:08.858Z,4.70
2019-02-15T07:58:38.083Z,4.70
2019-02-15T08:01:07.254Z,4.70
2019-02-15T08:03:36.498Z,4.80
2019-02-15T08:06:05.727Z,4.80
2019-02-15T08:08:35.074Z,4.80
2019-02-15T08:11:04.247Z,4.80
2019-02-15T08:13:33.395Z,4.90
2019-02-15T08:16:02.968Z,4.90
2019-02-15T08:18:32.310Z,4.90
2019-02-15T08:21:01.463Z,4.90
2019-02-15T08:23:30.638Z,4.90
2019-02-15T08:25:59.859Z,4.90
2019-02-15T08:28:29.027Z,5.00
2019-02-15T08:30:58.274Z,5.00
2019-02-15T08:33:27.499Z,5.00
2019-02-15T08:35:56.759Z,5.10
2019-02-15T08:38:27.490Z,5.10
2019-02-15T08:40:57.935Z,5.20
2019-02-15T08:43:27.359Z,5.20
2019-02-15T08:46:01.539Z,5.20
2019-02-15T08:48:27.396Z,5.30
2019-02-15T08:50:56.631Z,5.40
2019-02-15T08:53:25.804Z,5.40
2019-02-15T08:55:55.039Z,5.40
2019-02-15T08:58:24.212Z,5.40
2019-02-15T09:00:53.450Z,5.40
2019-02-15T09:03:22.959Z,5.50
2019-02-15T09:05:52.586Z,5.50
2019-02-15T09:08:21.867Z,5.50
2019-02-15T09:10:51.035Z,5.50
2019-02-15T09:13:20.274Z,5.50
2019-02-15T09:15:49.518Z,5.60
2019-02-15T09:18:18.688Z,5.60
2019-02-15T09:20:48.084Z,5.60
2019-02-15T09:23:17.499Z,5.60
2019-02-15T09:25:46.654Z,5.60
2019-02-15T09:28:23.158Z,5.60
2019-02-15T09:30:54.472Z,5.70
2019-02-15T09:33:23.792Z,5.70
2019-02-15T09:35:53.031Z,5.70
2019-02-15T09:38:22.194Z,5.70
2019-02-15T09:40:51.363Z,5.80
2019-02-15T09:43:20.518Z,5.80
2019-02-15T09:45:49.759Z,5.80
2019-02-15T09:48:18.914Z,5.80
2019-02-15T09:50:48.086Z,5.90
2019-02-15T09:53:18.385Z,5.90
2019-02-15T09:55:48.185Z,5.90
2019-02-15T09:58:17.432Z,5.90
2019-02-15T10:00:46.731Z,6.00
2019-02-15T10:03:15.902Z,6.00
2019-02-15T10:05:45.130Z,6.00
2019-02-15T10:08:14.298Z,6.10
2019-02-15T10:10:43.470Z,6.10
2019-02-15T10:13:12.700Z,6.10
2019-02-15T10:15:41.939Z,6.10
2019-02-15T10:18:11.198Z,6.10
2019-02-15T10:20:40.439Z,6.10
2019-02-15T10:23:10.880Z,6.10
2019-02-15T10:25:40.112Z,6.10
2019-02-15T10:28:09.360Z,6.10
2019-02-15T10:30:38.592Z,6.10
2019-02-15T10:33:07.833Z,6.10
2019-02-15T10:35:37.062Z,6.10
2019-02-15T10:38:06.238Z,6.10
2019-02-15T10:40:35.478Z,6.10
2019-02-15T10:43:04.733Z,6.00
2019-02-15T10:45:34.151Z,6.00
2019-02-15T10:48:03.459Z,6.00
2019-02-15T10:50:32.695Z,6.00
2019-02-15T10:53:01.919Z,6.00
2019-02-15T10:55:31.128Z,6.00
2019-02-15T10:58:00.338Z,6.00
2019-02-15T11:00:29.503Z,6.00
2019-02-15T11:02:58.656Z,6.00
2019-02-15T11:05:27.828Z,6.00
2019-02-15T11:07:57.068Z,5.90
2019-02-15T11:10:26.311Z,6.00
2019-02-15T11:12:55.480Z,6.00
2019-02-15T11:15:24.744Z,6.00
2019-02-15T11:17:53.987Z,5.90
2019-02-15T11:20:23.215Z,5.90
2019-02-15T11:22:52.454Z,5.90
2019-02-15T11:25:21.611Z,5.90
2019-02-15T11:27:50.780Z,5.90
2019-02-15T11:30:20.023Z,5.90
2019-02-15T11:32:49.265Z,5.90
2019-02-15T11:35:18.506Z,5.90
2019-02-15T11:37:48.151Z,5.90
2019-02-15T11:40:17.380Z,6.00
2019-02-15T11:42:46.811Z,5.90
2019-02-15T11:45:16.059Z,5.90
2019-02-15T11:47:45.282Z,5.90
2019-02-15T11:50:15.271Z,5.90
2019-02-15T11:52:44.498Z,6.00
2019-02-15T11:55:13.959Z,5.90
2019-02-15T11:57:43.205Z,6.00
2019-02-15T12:00:17.796Z,5.90
2019-02-15T12:02:47.050Z,6.00
2019-02-15T12:05:16.210Z,6.00
2019-02-15T12:07:45.463Z,6.00
2019-02-15T12:10:14.621Z,5.90
2019-02-15T12:12:43.860Z,5.90
2019-02-15T12:15:13.030Z,6.00
2019-02-15T12:17:42.270Z,5.90
2019-02-15T12:20:13.556Z,6.00
2019-02-15T12:22:42.993Z,5.90
2019-02-15T12:25:12.319Z,5.90
2019-02-15T12:27:41.560Z,5.90
2019-02-15T12:30:15.011Z,6.00
2019-02-15T12:32:44.254Z,5.90
2019-02-15T12:35:13.496Z,5.90
2019-02-15T12:37:42.760Z,5.90
2019-02-15T12:40:12.260Z,6.00
2019-02-15T12:42:41.500Z,6.00
2019-02-15T12:45:13.338Z,6.00
2019-02-15T12:47:42.494Z,6.00
2019-02-15T12:50:17.531Z,5.90
2019-02-15T12:52:46.763Z,6.00
2019-02-15T12:55:16.015Z,6.00
2019-02-15T12:57:45.239Z,5.90
2019-02-15T13:00:17.940Z,5.90
2019-02-15T13:02:47.176Z,5.90
2019-02-15T13:05:16.343Z,5.90
2019-02-15T13:07:45.508Z,5.90
2019-02-15T13:10:22.520Z,5.90
2019-02-15T13:12:51.749Z,5.90
2019-02-15T13:15:21.006Z,5.90
2019-02-15T13:17:50.181Z,5.90
2019-02-15T13:20:19.529Z,5.90
2019-02-15T13:22:48.771Z,5.90
2019-02-15T13:25:18.014Z,5.90
2019-02-15T13:27:47.255Z,5.90
2019-02-15T13:30:16.899Z,5.90
2019-02-15T13:32:46.143Z,5.90
2019-02-15T13:35:23.528Z,5.90
2019-02-15T13:37:52.771Z,5.90
2019-02-15T13:40:21.999Z,5.90
2019-02-15T13:42:51.167Z,5.80
2019-02-15T13:45:20.340Z,5.90
2019-02-15T13:47:50.753Z,5.90
2019-02-15T13:50:19.995Z,5.80
2019-02-15T13:52:49.237Z,5.80
2019-02-15T13:55:18.407Z,5.80
2019-02-15T13:57:47.711Z,5.80
2019-02-15T14:00:16.956Z,5.80
2019-02-15T14:02:46.270Z,5.80
2019-02-15T14:05:15.519Z,5.80
2019-02-15T14:07:44.759Z,5.80
2019-02-15T14:10:14.938Z,5.80
2019-02-15T14:12:44.168Z,5.80
2019-02-15T14:15:13.659Z,5.70
2019-02-15T14:17:46.308Z,5.70
2019-02-15T14:20:16.615Z,5.70
2019-02-15T14:22:45.854Z,5.70
2019-02-15T14:25:15.224Z,5.70
2019-02-15T14:27:44.524Z,5.70
2019-02-15T14:30:14.608Z,5.70
2019-02-15T14:32:43.864Z,5.70
2019-02-15T14:35:14.135Z,5.70
2019-02-15T14:37:43.303Z,5.70
2019-02-15T14:40:14.247Z,5.70
2019-02-15T14:42:43.422Z,5.70
2019-02-15T14:45:13.838Z,5.70
2019-02-15T14:47:43.078Z,5.70
2019-02-15T14:50:12.249Z,5.70
2019-02-15T14:52:41.491Z,5.70
2019-02-15T14:55:11.226Z,5.70
2019-02-15T14:57:40.470Z,5.70
2019-02-15T15:00:14.812Z,5.70
2019-02-15T15:02:44.491Z,5.70
2019-02-15T15:05:13.785Z,5.70
2019-02-15T15:07:43.034Z,5.70
2019-02-15T15:10:12.558Z,5.60
2019-02-15T15:12:41.798Z,5.60
2019-02-15T15:15:15.760Z,5.60
2019-02-15T15:17:45.006Z,5.60
2019-02-15T15:20:14.250Z,5.60
2019-02-15T15:22:43.491Z,5.60
2019-02-15T15:25:13.898Z,5.60
2019-02-15T15:27:43.068Z,5.60
2019-02-15T15:30:13.781Z,5.60
2019-02-15T15:32:43.018Z,5.60
2019-02-15T15:35:12.357Z,5.60
2019-02-15T15:37:41.599Z,5.60
2019-02-15T15:40:12.994Z,5.50
2019-02-15T15:42:42.279Z,5.60
2019-02-15T15:45:12.279Z,5.60
2019-02-15T15:47:41.520Z,5.60
2019-02-15T15:50:11.909Z,5.50
2019-02-15T15:52:41.151Z,5.60
2019-02-15T15:55:12.906Z,5.60
2019-02-15T15:57:42.147Z,5.50
2019-02-15T16:00:13.852Z,5.50
2019-02-15T16:02:43.090Z,5.50
2019-02-15T16:05:12.314Z,5.50
2019-02-15T16:07:43.443Z,5.50
2019-02-15T16:10:14.776Z,5.50
2019-02-15T16:12:44.015Z,5.50
2019-02-15T16:15:14.011Z,5.50
2019-02-15T16:17:43.262Z,5.50
2019-02-15T16:20:13.554Z,5.50
2019-02-15T16:22:42.737Z,5.50
2019-02-15T16:25:11.983Z,5.50
2019-02-15T16:27:43.408Z,5.50
2019-02-15T16:30:16.071Z,5.50
2019-02-15T16:32:45.247Z,5.40
2019-02-15T16:35:14.492Z,5.50
2019-02-15T16:37:43.720Z,5.40
2019-02-15T16:40:15.368Z,5.50
2019-02-15T16:42:45.018Z,5.40
2019-02-15T16:45:15.189Z,5.40
2019-02-15T16:47:44.440Z,5.50
2019-02-15T16:50:13.750Z,5.50
2019-02-15T16:52:42.919Z,5.40
2019-02-15T16:55:13.147Z,5.40
2019-02-15T16:57:42.732Z,5.40
2019-02-15T17:00:13.108Z,5.40
2019-02-15T17:02:42.362Z,5.40
2019-02-15T17:05:11.583Z,5.40
2019-02-15T17:07:40.826Z,5.40
2019-02-15T17:10:11.034Z,5.40
2019-02-15T17:12:40.551Z,5.40
2019-02-15T17:15:15.645Z,5.40
2019-02-15T17:17:46.142Z,5.40
2019-02-15T17:20:15.315Z,5.40
2019-02-15T17:22:44.470Z,5.40
2019-02-15T17:25:13.642Z,5.40
2019-02-15T17:27:42.890Z,5.40
2019-02-15T17:30:12.391Z,5.40
2019-02-15T17:32:41.558Z,5.40
2019-02-15T17:35:11.551Z,5.40
2019-02-15T17:37:40.724Z,5.40
2019-02-15T17:40:15.425Z,5.40
2019-02-15T17:42:44.647Z,5.40
2019-02-15T17:45:13.892Z,5.40
2019-02-15T17:47:43.138Z,5.40
2019-02-15T17:50:12.574Z,5.40
2019-02-15T17:52:41.735Z,5.40
2019-02-15T17:55:11.046Z,5.40
2019-02-15T17:57:40.220Z,5.40
2019-02-15T18:00:13.074Z,5.40
2019-02-15T18:02:42.253Z,5.40
2019-02-15T18:05:17.213Z,5.40
2019-02-15T18:07:48.794Z,5.40
2019-02-15T18:10:18.023Z,5.40
2019-02-15T18:12:47.272Z,5.40
2019-02-15T18:15:16.516Z,5.40
2019-02-15T18:17:45.750Z,5.40
2019-02-15T18:20:14.924Z,5.40
2019-02-15T18:22:44.077Z,5.40
2019-02-15T18:25:13.319Z,5.40
2019-02-15T18:27:42.550Z,5.40
2019-02-15T18:30:14.368Z,5.40
2019-02-15T18:32:43.588Z,5.40
2019-02-15T18:35:12.759Z,5.30
2019-02-15T18:37:41.999Z,5.40
2019-02-15T18:40:11.237Z,5.40
2019-02-15T18:42:40.468Z,5.40
2019-02-15T18:45:13.006Z,5.40
2019-02-15T18:47:42.250Z,5.30
2019-02-15T18:50:11.723Z,5.30
2019-02-15T18:52:41.036Z,5.40
2019-02-15T18:55:11.303Z,5.40
2019-02-15T18:57:40.477Z,5.40
2019-02-15T19:00:15.379Z,5.40
2019-02-15T19:02:47.894Z,5.30
2019-02-15T19:05:17.051Z,5.30
2019-02-15T19:07:46.225Z,5.40
2019-02-15T19:10:22.498Z,5.30
2019-02-15T19:12:53.139Z,5.30
2019-02-15T19:15:22.451Z,5.30
2019-02-15T19:17:51.645Z,5.30
2019-02-15T19:20:20.847Z,5.30
2019-02-15T19:22:50.020Z,5.30
2019-02-15T19:25:20.716Z,5.30
2019-02-15T19:27:49.944Z,5.30
2019-02-15T19:30:30.749Z,5.30
2019-02-15T19:32:59.991Z,5.30
2019-02-15T19:35:29.172Z,5.30
2019-02-15T19:37:58.411Z,5.30
2019-02-15T19:40:27.632Z,5.30
2019-02-15T19:43:00.131Z,5.30
2019-02-15T19:45:29.376Z,5.30
2019-02-15T19:47:58.551Z,5.30
2019-02-15T19:50:27.845Z,5.30
2019-02-15T19:52:57.088Z,5.30
2019-02-15T19:55:26.331Z,5.30
2019-02-15T19:57:55.583Z,5.30
2019-02-15T20:00:24.827Z,5.30
2019-02-15T20:02:54.059Z,5.30
2019-02-15T20:05:23.302Z,5.30
2019-02-15T20:07:52.480Z,5.20
2019-02-15T20:10:23.564Z,5.30
2019-02-15T20:12:52.807Z,5.30
2019-02-15T20:15:22.114Z,5.30
2019-02-15T20:17:52.447Z,5.20
2019-02-15T20:20:21.598Z,5.20
2019-02-15T20:22:50.769Z,5.20
2019-02-15T20:25:19.937Z,5.20
2019-02-15T20:27:50.358Z,5.20
2019-02-15T20:30:23.685Z,5.20
2019-02-15T20:32:53.078Z,5.20
2019-02-15T20:35:22.324Z,5.20
2019-02-15T20:37:51.568Z,5.20
2019-02-15T20:40:20.795Z,5.20
2019-02-15T20:42:49.966Z,5.20
2019-02-15T20:45:23.789Z,5.20
2019-02-15T20:47:53.112Z,5.20
2019-02-15T20:50:23.710Z,5.20
2019-02-15T20:52:52.943Z,5.20
2019-02-15T20:55:22.111Z,5.20
2019-02-15T20:57:51.267Z,5.20
2019-02-15T21:00:25.463Z,5.20
2019-02-15T21:02:54.689Z,5.20
2019-02-15T21:05:23.931Z,5.20
2019-02-15T21:07:53.119Z,5.20
2019-02-15T21:10:22.287Z,5.20
2019-02-15T21:12:51.468Z,5.20
2019-02-15T21:15:20.704Z,5.20
2019-02-15T21:17:49.927Z,5.20
2019-02-15T21:20:19.090Z,5.20
2019-02-15T21:22:48.292Z,5.10
2019-02-15T21:25:18.703Z,5.20
2019-02-15T21:27:47.947Z,5.20
2019-02-15T21:30:19.943Z,5.20
2019-02-15T21:32:49.186Z,5.20
2019-02-15T21:35:18.342Z,5.20
2019-02-15T21:37:48.594Z,5.20
2019-02-15T21:40:18.556Z,5.10
2019-02-15T21:42:47.800Z,5.10
2019-02-15T21:45:17.041Z,5.10
2019-02-15T21:47:46.503Z,5.10
2019-02-15T21:50:17.519Z,5.10
2019-02-15T21:52:46.612Z,5.10
2019-02-15T21:55:16.524Z,5.10
2019-02-15T21:57:45.764Z,5.10
2019-02-15T22:00:25.927Z,5.10
2019-02-15T22:02:55.155Z,5.10
2019-02-15T22:05:24.546Z,5.10
2019-02-15T22:07:53.716Z,5.10
2019-02-15T22:10:22.887Z,5.10
2019-02-15T22:12:52.132Z,5.10
2019-02-15T22:15:21.360Z,5.10
2019-02-15T22:17:50.609Z,5.10
2019-02-15T22:20:26.239Z,5.10
2019-02-15T22:22:50.707Z,5.10
2019-02-15T22:25:19.862Z,5.10
2019-02-15T22:27:49.102Z,5.10
2019-02-15T22:30:19.607Z,5.10
2019-02-15T22:32:48.850Z,5.10
2019-02-15T22:35:18.099Z,5.10
2019-02-15T22:37:47.334Z,5.10
2019-02-15T22:40:28.479Z,5.10
2019-02-15T22:43:15.870Z,5.10
2019-02-15T22:45:45.029Z,5.10
2019-02-15T22:48:14.570Z,5.10
2019-02-15T22:50:43.796Z,5.10
2019-02-15T22:53:13.038Z,5.10
2019-02-15T22:55:42.282Z,5.00
2019-02-15T22:58:11.435Z,5.10
2019-02-15T23:00:51.242Z,5.10
2019-02-15T23:03:22.606Z,5.00
2019-02-15T23:05:53.038Z,5.00
2019-02-15T23:08:22.206Z,5.00
2019-02-15T23:10:51.449Z,5.10
2019-02-15T23:13:21.859Z,5.10
2019-02-15T23:15:51.016Z,5.10
2019-02-15T23:18:20.326Z,5.10
2019-02-15T23:20:49.686Z,5.00
2019-02-15T23:23:18.859Z,5.00
2019-02-15T23:25:48.102Z,5.00
2019-02-15T23:28:17.346Z,5.00
2019-02-15T23:30:46.587Z,5.00
2019-02-15T23:33:16.090Z,5.00
2019-02-15T23:35:45.266Z,5.00
2019-02-15T23:38:14.490Z,5.00
2019-02-15T23:40:43.738Z,5.00
2019-02-15T23:43:12.998Z,5.00
2019-02-15T23:45:42.277Z,5.00
2019-02-15T23:48:11.490Z,5.00
2019-02-15T23:50:40.656Z,5.00
2019-02-15T23:53:09.822Z,5.00
2019-02-15T23:55:38.987Z,5.00
2019-02-15T23:58:08.155Z,5.00
